sensor_id;sensor_type;location;lat;lon;timestamp;pressure;altitude;pressure_sealevel;temperature;humidity
29903;BME280;30288;50.514;9.678;2023-12-29T00:01:22;98477.84;;;8.79;100.00
29903;BME280;30288;50.514;9.678;2023-12-29T00:03:27;98462.72;;;8.84;100.00
29903;BME280;30288;50.514;9.678;2023-12-29T00:05:37;98456.88;;;8.82;100.00
29903;BME280;30288;50.514;9.678;2023-12-29T00:07:45;98453.56;;;8.79;100.00
29903;BME280;30288;50.514;9.678;2023-12-29T00:09:52;98438.84;;;8.67;100.00
29903;BME280;30288;50.514;9.678;2023-12-29T00:11:57;98457.16;;;8.71;100.00
29903;BME280;30288;50.514;9.678;2023-12-29T00:14:03;98441.81;;;8.82;100.00
29903;BME280;30288;50.514;9.678;2023-12-29T00:16:08;98440.31;;;8.74;100.00
29903;BME280;30288;50.514;9.678;2023-12-29T00:18:16;98449.38;;;8.80;100.00
29903;BME280;30288;50.514;9.678;2023-12-29T00:20:21;98427.88;;;8.70;100.00
29903;BME280;30288;50.514;9.678;2023-12-29T00:22:42;98430.59;;;8.62;100.00
29903;BME280;30288;50.514;9.678;2023-12-29T00:24:47;98433.00;;;8.67;100.00
29903;BME280;30288;50.514;9.678;2023-12-29T00:26:53;98426.38;;;8.64;100.00
29903;BME280;30288;50.514;9.678;2023-12-29T00:28:58;98416.13;;;8.72;100.00
29903;BME280;30288;50.514;9.678;2023-12-29T00:31:03;98416.16;;;8.70;100.00
29903;BME280;30288;50.514;9.678;2023-12-29T00:33:09;98411.19;;;8.69;100.00
29903;BME280;30288;50.514;9.678;2023-12-29T00:35:17;98417.69;;;8.76;100.00
29903;BME280;30288;50.514;9.678;2023-12-29T00:37:22;98401.66;;;8.82;100.00
29903;BME280;30288;50.514;9.678;2023-12-29T00:39:30;98401.81;;;8.75;100.00
29903;BME280;30288;50.514;9.678;2023-12-29T00:41:41;98412.03;;;8.69;100.00
29903;BME280;30288;50.514;9.678;2023-12-29T00:43:47;98398.66;;;8.67;100.00
29903;BME280;30288;50.514;9.678;2023-12-29T00:45:53;98400.38;;;8.65;100.00
29903;BME280;30288;50.514;9.678;2023-12-29T00:47:58;98398.66;;;8.69;100.00
29903;BME280;30288;50.514;9.678;2023-12-29T00:50:06;98401.09;;;8.70;100.00
29903;BME280;30288;50.514;9.678;2023-12-29T00:52:14;98383.69;;;8.64;100.00
29903;BME280;30288;50.514;9.678;2023-12-29T00:54:19;98389.34;;;8.72;100.00
29903;BME280;30288;50.514;9.678;2023-12-29T00:56:27;98394.50;;;8.66;100.00
29903;BME280;30288;50.514;9.678;2023-12-29T00:58:32;98393.88;;;8.58;100.00
29903;BME280;30288;50.514;9.678;2023-12-29T01:00:37;98395.84;;;8.47;100.00
29903;BME280;30288;50.514;9.678;2023-12-29T01:02:43;98392.38;;;8.51;100.00
29903;BME280;30288;50.514;9.678;2023-12-29T01:04:48;98382.34;;;8.51;100.00
29903;BME280;30288;50.514;9.678;2023-12-29T01:06:53;98392.00;;;8.66;100.00
29903;BME280;30288;50.514;9.678;2023-12-29T01:08:59;98388.28;;;8.79;100.00
29903;BME280;30288;50.514;9.678;2023-12-29T01:11:04;98390.53;;;8.90;100.00
29903;BME280;30288;50.514;9.678;2023-12-29T01:13:09;98385.19;;;9.02;100.00
29903;BME280;30288;50.514;9.678;2023-12-29T01:15:12;98390.28;;;8.99;100.00
29903;BME280;30288;50.514;9.678;2023-12-29T01:17:17;98387.03;;;8.96;100.00
29903;BME280;30288;50.514;9.678;2023-12-29T01:19:24;98393.66;;;8.98;100.00
29903;BME280;30288;50.514;9.678;2023-12-29T01:21:30;98386.88;;;9.02;100.00
29903;BME280;30288;50.514;9.678;2023-12-29T01:23:37;98375.31;;;8.96;100.00
29903;BME280;30288;50.514;9.678;2023-12-29T01:25:45;98381.31;;;8.91;100.00
29903;BME280;30288;50.514;9.678;2023-12-29T01:27:51;98396.53;;;8.85;100.00
29903;BME280;30288;50.514;9.678;2023-12-29T01:29:53;98390.63;;;8.87;100.00
29903;BME280;30288;50.514;9.678;2023-12-29T01:31:58;98382.88;;;8.95;100.00
29903;BME280;30288;50.514;9.678;2023-12-29T01:34:06;98375.47;;;8.90;100.00
29903;BME280;30288;50.514;9.678;2023-12-29T01:36:17;98379.66;;;8.90;100.00
29903;BME280;30288;50.514;9.678;2023-12-29T01:38:27;98391.50;;;8.85;100.00
29903;BME280;30288;50.514;9.678;2023-12-29T01:40:46;98375.44;;;8.92;100.00
29903;BME280;30288;50.514;9.678;2023-12-29T01:42:52;98386.34;;;8.91;100.00
29903;BME280;30288;50.514;9.678;2023-12-29T01:44:55;98384.06;;;8.82;100.00
29903;BME280;30288;50.514;9.678;2023-12-29T01:47:02;98400.91;;;8.78;100.00
29903;BME280;30288;50.514;9.678;2023-12-29T01:49:08;98401.81;;;8.75;100.00
29903;BME280;30288;50.514;9.678;2023-12-29T01:51:12;98400.25;;;8.71;100.00
29903;BME280;30288;50.514;9.678;2023-12-29T01:53:17;98395.38;;;8.65;100.00
29903;BME280;30288;50.514;9.678;2023-12-29T01:55:37;98391.28;;;8.61;100.00
29903;BME280;30288;50.514;9.678;2023-12-29T01:57:45;98399.47;;;8.69;100.00
29903;BME280;30288;50.514;9.678;2023-12-29T01:59:51;98400.38;;;8.65;100.00
29903;BME280;30288;50.514;9.678;2023-12-29T02:01:57;98398.69;;;8.66;100.00
29903;BME280;30288;50.514;9.678;2023-12-29T02:04:03;98391.16;;;8.66;100.00
29903;BME280;30288;50.514;9.678;2023-12-29T02:06:10;98392.09;;;8.63;100.00
29903;BME280;30288;50.514;9.678;2023-12-29T02:08:15;98401.50;;;8.55;100.00
29903;BME280;30288;50.514;9.678;2023-12-29T02:10:21;98400.56;;;8.59;100.00
29903;BME280;30288;50.514;9.678;2023-12-29T02:12:27;98398.91;;;8.58;100.00
29903;BME280;30288;50.514;9.678;2023-12-29T02:14:33;98413.16;;;8.56;100.00
29903;BME280;30288;50.514;9.678;2023-12-29T02:16:45;98405.16;;;8.74;100.00
29903;BME280;30288;50.514;9.678;2023-12-29T02:18:52;98396.97;;;8.69;100.00
29903;BME280;30288;50.514;9.678;2023-12-29T02:20:58;98395.31;;;8.68;100.00
29903;BME280;30288;50.514;9.678;2023-12-29T02:23:05;98395.88;;;8.78;100.00
29903;BME280;30288;50.514;9.678;2023-12-29T02:25:15;98398.53;;;8.73;100.00
29903;BME280;30288;50.514;9.678;2023-12-29T02:27:29;98413.41;;;8.79;100.00
29903;BME280;30288;50.514;9.678;2023-12-29T02:29:38;98400.00;;;8.81;100.00
29903;BME280;30288;50.514;9.678;2023-12-29T02:31:44;98382.44;;;8.79;100.00
29903;BME280;30288;50.514;9.678;2023-12-29T02:33:54;98387.44;;;8.81;100.00
29903;BME280;30288;50.514;9.678;2023-12-29T02:36:02;98391.50;;;8.85;100.00
29903;BME280;30288;50.514;9.678;2023-12-29T02:38:09;98390.78;;;8.81;100.00
29903;BME280;30288;50.514;9.678;2023-12-29T02:40:17;98387.47;;;8.79;100.00
29903;BME280;30288;50.514;9.678;2023-12-29T02:42:20;98375.69;;;8.83;100.00
29903;BME280;30288;50.514;9.678;2023-12-29T02:44:25;98373.06;;;8.86;100.00
29903;BME280;30288;50.514;9.678;2023-12-29T02:46:30;98377.44;;;8.79;100.00
29903;BME280;30288;50.514;9.678;2023-12-29T02:48:35;98390.78;;;8.81;100.00
29903;BME280;30288;50.514;9.678;2023-12-29T02:50:41;98380.56;;;8.87;100.00
29903;BME280;30288;50.514;9.678;2023-12-29T02:52:46;98395.66;;;8.87;100.00
29903;BME280;30288;50.514;9.678;2023-12-29T02:54:51;98381.47;;;8.85;100.00
29903;BME280;30288;50.514;9.678;2023-12-29T02:56:59;98388.00;;;8.92;100.00
29903;BME280;30288;50.514;9.678;2023-12-29T02:59:05;98389.63;;;8.93;100.00
29903;BME280;30288;50.514;9.678;2023-12-29T03:01:10;98369.47;;;8.96;100.00
29903;BME280;30288;50.514;9.678;2023-12-29T03:03:15;98383.78;;;8.92;100.00
29903;BME280;30288;50.514;9.678;2023-12-29T03:05:20;98384.44;;;8.99;100.00
29903;BME280;30288;50.514;9.678;2023-12-29T03:07:26;98389.56;;;8.96;100.00
29903;BME280;30288;50.514;9.678;2023-12-29T03:09:32;98387.91;;;8.95;100.00
29903;BME280;30288;50.514;9.678;2023-12-29T03:11:35;98390.34;;;8.98;100.00
29903;BME280;30288;50.514;9.678;2023-12-29T03:13:42;98387.84;;;8.98;100.00
29903;BME280;30288;50.514;9.678;2023-12-29T03:15:47;98376.97;;;8.97;100.00
29903;BME280;30288;50.514;9.678;2023-12-29T03:17:52;98382.63;;;9.04;100.00
29903;BME280;30288;50.514;9.678;2023-12-29T03:19:58;98389.56;;;8.96;100.00
29903;BME280;30288;50.514;9.678;2023-12-29T03:22:04;98371.88;;;8.99;100.00
29903;BME280;30288;50.514;9.678;2023-12-29T03:24:10;98377.78;;;8.98;100.00
29903;BME280;30288;50.514;9.678;2023-12-29T03:26:15;98377.94;;;8.92;100.00
29903;BME280;30288;50.514;9.678;2023-12-29T03:28:21;98390.56;;;8.89;100.00
29903;BME280;30288;50.514;9.678;2023-12-29T03:30:28;98372.91;;;8.92;100.00
29903;BME280;30288;50.514;9.678;2023-12-29T03:32:34;98373.88;;;8.88;100.00
29903;BME280;30288;50.514;9.678;2023-12-29T03:34:40;98365.53;;;8.86;100.00
29903;BME280;30288;50.514;9.678;2023-12-29T03:36:46;98377.25;;;8.87;100.00
29903;BME280;30288;50.514;9.678;2023-12-29T03:38:53;98378.00;;;8.89;100.00
29903;BME280;30288;50.514;9.678;2023-12-29T03:40:58;98364.59;;;8.90;100.00
29903;BME280;30288;50.514;9.678;2023-12-29T03:43:04;98362.94;;;8.89;100.00
29903;BME280;30288;50.514;9.678;2023-12-29T03:45:10;98360.41;;;8.90;100.00
29903;BME280;30288;50.514;9.678;2023-12-29T03:47:19;98357.84;;;8.92;100.00
29903;BME280;30288;50.514;9.678;2023-12-29T03:49:24;98366.34;;;8.88;100.00
29903;BME280;30288;50.514;9.678;2023-12-29T03:51:30;98358.69;;;8.92;100.00
29903;BME280;30288;50.514;9.678;2023-12-29T03:53:35;98352.75;;;8.95;100.00
29903;BME280;30288;50.514;9.678;2023-12-29T03:55:40;98349.09;;;9.05;100.00
29903;BME280;30288;50.514;9.678;2023-12-29T03:57:46;98354.38;;;8.96;100.00
29903;BME280;30288;50.514;9.678;2023-12-29T03:59:51;98329.38;;;8.93;100.00
29903;BME280;30288;50.514;9.678;2023-12-29T04:01:56;98323.81;;;8.82;100.00
29903;BME280;30288;50.514;9.678;2023-12-29T04:04:04;98321.41;;;8.78;100.00
29903;BME280;30288;50.514;9.678;2023-12-29T04:06:10;98314.88;;;8.71;100.00
29903;BME280;30288;50.514;9.678;2023-12-29T04:08:16;98310.00;;;8.65;100.00
29903;BME280;30288;50.514;9.678;2023-12-29T04:10:18;98305.34;;;8.53;100.00
29903;BME280;30288;50.514;9.678;2023-12-29T04:12:23;98313.81;;;8.49;100.00
29903;BME280;30288;50.514;9.678;2023-12-29T04:14:29;98308.84;;;8.46;100.00
29903;BME280;30288;50.514;9.678;2023-12-29T04:16:37;98303.72;;;8.51;100.00
29903;BME280;30288;50.514;9.678;2023-12-29T04:18:43;98308.00;;;8.47;100.00
29903;BME280;30288;50.514;9.678;2023-12-29T04:20:51;98296.94;;;8.54;100.00
29903;BME280;30288;50.514;9.678;2023-12-29T04:22:56;98297.09;;;8.48;100.00
29903;BME280;30288;50.514;9.678;2023-12-29T04:25:04;98305.44;;;8.50;100.00
29903;BME280;30288;50.514;9.678;2023-12-29T04:27:11;98312.00;;;8.54;100.00
29903;BME280;30288;50.514;9.678;2023-12-29T04:29:15;98310.19;;;8.59;100.00
29903;BME280;30288;50.514;9.678;2023-12-29T04:31:20;98311.75;;;8.63;100.00
29903;BME280;30288;50.514;9.678;2023-12-29T04:33:25;98324.03;;;8.74;100.00
29903;BME280;30288;50.514;9.678;2023-12-29T04:35:30;98309.84;;;8.71;100.00
29903;BME280;30288;50.514;9.678;2023-12-29T04:37:39;98318.00;;;8.79;100.00
29903;BME280;30288;50.514;9.678;2023-12-29T04:39:45;98320.56;;;8.78;100.00
29903;BME280;30288;50.514;9.678;2023-12-29T04:41:50;98325.59;;;8.78;100.00
29903;BME280;30288;50.514;9.678;2023-12-29T04:43:55;98322.94;;;8.83;100.00
29903;BME280;30288;50.514;9.678;2023-12-29T04:45:58;98329.66;;;8.82;100.00
29903;BME280;30288;50.514;9.678;2023-12-29T04:48:04;98339.66;;;8.84;100.00
29903;BME280;30288;50.514;9.678;2023-12-29T04:50:10;98339.56;;;8.87;100.00
29903;BME280;30288;50.514;9.678;2023-12-29T04:52:12;98335.44;;;8.84;100.00
29903;BME280;30288;50.514;9.678;2023-12-29T04:54:20;98321.13;;;8.88;100.00
29903;BME280;30288;50.514;9.678;2023-12-29T04:56:25;98322.09;;;8.84;100.00
29903;BME280;30288;50.514;9.678;2023-12-29T04:58:31;98330.47;;;8.83;100.00
29903;BME280;30288;50.514;9.678;2023-12-29T05:00:36;98322.75;;;8.89;100.00
29903;BME280;30288;50.514;9.678;2023-12-29T05:02:42;98319.50;;;8.87;100.00
29903;BME280;30288;50.514;9.678;2023-12-29T05:04:48;98316.19;;;8.85;100.00
29903;BME280;30288;50.514;9.678;2023-12-29T05:06:53;98299.50;;;8.84;100.00
29903;BME280;30288;50.514;9.678;2023-12-29T05:08:58;98301.22;;;8.82;100.00
29903;BME280;30288;50.514;9.678;2023-12-29T05:11:06;98311.25;;;8.82;100.00
29903;BME280;30288;50.514;9.678;2023-12-29T05:13:12;98317.06;;;8.84;100.00
29903;BME280;30288;50.514;9.678;2023-12-29T05:15:17;98306.06;;;8.88;100.00
29903;BME280;30288;50.514;9.678;2023-12-29T05:17:22;98307.94;;;8.79;100.00
29903;BME280;30288;50.514;9.678;2023-12-29T05:19:28;98303.84;;;8.77;100.00
29903;BME280;30288;50.514;9.678;2023-12-29T05:21:33;98289.75;;;8.73;100.00
29903;BME280;30288;50.514;9.678;2023-12-29T05:23:39;98295.78;;;8.66;100.00
29903;BME280;30288;50.514;9.678;2023-12-29T05:25:44;98285.81;;;8.64;100.00
29903;BME280;30288;50.514;9.678;2023-12-29T05:27:52;98282.50;;;8.62;100.00
29903;BME280;30288;50.514;9.678;2023-12-29T05:29:57;98280.00;;;8.62;100.00
29903;BME280;30288;50.514;9.678;2023-12-29T05:32:03;98284.91;;;8.65;100.00
29903;BME280;30288;50.514;9.678;2023-12-29T05:34:08;98289.16;;;8.63;100.00
29903;BME280;30288;50.514;9.678;2023-12-29T05:36:14;98302.41;;;8.68;100.00
29903;BME280;30288;50.514;9.678;2023-12-29T05:38:20;98297.34;;;8.70;100.00
29903;BME280;30288;50.514;9.678;2023-12-29T05:40:25;98299.81;;;8.71;100.00
29903;BME280;30288;50.514;9.678;2023-12-29T05:42:30;98292.06;;;8.79;100.00
29903;BME280;30288;50.514;9.678;2023-12-29T05:44:38;98310.34;;;8.84;100.00
29903;BME280;30288;50.514;9.678;2023-12-29T05:46:46;98303.69;;;8.83;100.00
29903;BME280;30288;50.514;9.678;2023-12-29T05:48:51;98292.88;;;8.79;100.00
29903;BME280;30288;50.514;9.678;2023-12-29T05:50:57;98277.81;;;8.79;100.00
29903;BME280;30288;50.514;9.678;2023-12-29T05:53:02;98297.06;;;8.81;100.00
29903;BME280;30288;50.514;9.678;2023-12-29T05:55:08;98299.41;;;8.87;100.00
29903;BME280;30288;50.514;9.678;2023-12-29T05:57:13;98307.88;;;8.83;100.00
29903;BME280;30288;50.514;9.678;2023-12-29T05:59:18;98309.59;;;8.81;100.00
29903;BME280;30288;50.514;9.678;2023-12-29T06:01:24;98323.13;;;8.76;100.00
29903;BME280;30288;50.514;9.678;2023-12-29T06:03:29;98316.28;;;8.82;100.00
29903;BME280;30288;50.514;9.678;2023-12-29T06:05:35;98308.63;;;8.86;100.00
29903;BME280;30288;50.514;9.678;2023-12-29T06:07:43;98309.44;;;8.87;100.00
29903;BME280;30288;50.514;9.678;2023-12-29T06:09:48;98326.06;;;8.91;100.00
29903;BME280;30288;50.514;9.678;2023-12-29T06:11:54;98329.44;;;8.90;100.00
29903;BME280;30288;50.514;9.678;2023-12-29T06:14:00;98328.59;;;8.89;100.00
29903;BME280;30288;50.514;9.678;2023-12-29T06:16:06;98320.22;;;8.90;100.00
29903;BME280;30288;50.514;9.678;2023-12-29T06:18:14;98314.31;;;8.93;100.00
29903;BME280;30288;50.514;9.678;2023-12-29T06:20:20;98328.56;;;8.91;100.00
29903;BME280;30288;50.514;9.678;2023-12-29T06:22:26;98327.72;;;8.92;100.00
29903;BME280;30288;50.514;9.678;2023-12-29T06:24:29;98329.28;;;8.96;100.00
29903;BME280;30288;50.514;9.678;2023-12-29T06:26:34;98340.84;;;9.01;100.00
29903;BME280;30288;50.514;9.678;2023-12-29T06:28:44;98341.84;;;8.96;100.00
29903;BME280;30288;50.514;9.678;2023-12-29T06:30:49;98349.38;;;8.96;100.00
29903;BME280;30288;50.514;9.678;2023-12-29T06:32:54;98339.41;;;8.93;100.00
29903;BME280;30288;50.514;9.678;2023-12-29T06:35:04;98342.69;;;8.95;100.00
29903;BME280;30288;50.514;9.678;2023-12-29T06:37:09;98336.84;;;8.94;100.00
29903;BME280;30288;50.514;9.678;2023-12-29T06:39:15;98336.09;;;8.91;100.00
29903;BME280;30288;50.514;9.678;2023-12-29T06:41:20;98339.41;;;8.93;100.00
29903;BME280;30288;50.514;9.678;2023-12-29T06:43:26;98325.91;;;8.97;100.00
29903;BME280;30288;50.514;9.678;2023-12-29T06:45:31;98335.16;;;8.95;100.00
29903;BME280;30288;50.514;9.678;2023-12-29T06:47:37;98335.31;;;8.89;100.00
29903;BME280;30288;50.514;9.678;2023-12-29T06:49:43;98325.22;;;8.92;100.00
29903;BME280;30288;50.514;9.678;2023-12-29T06:51:48;98332.75;;;8.92;100.00
29903;BME280;30288;50.514;9.678;2023-12-29T06:53:54;98320.19;;;8.92;100.00
29903;BME280;30288;50.514;9.678;2023-12-29T06:56:02;98329.44;;;8.90;100.00
29903;BME280;30288;50.514;9.678;2023-12-29T06:58:07;98324.50;;;8.87;100.00
29903;BME280;30288;50.514;9.678;2023-12-29T07:00:13;98326.78;;;8.94;100.00
29903;BME280;30288;50.514;9.678;2023-12-29T07:02:18;98334.56;;;8.87;100.00
29903;BME280;30288;50.514;9.678;2023-12-29T07:04:23;98322.59;;;8.95;100.00
29903;BME280;30288;50.514;9.678;2023-12-29T07:06:30;98341.03;;;8.94;100.00
29903;BME280;30288;50.514;9.678;2023-12-29T07:08:38;98324.34;;;8.93;100.00
29903;BME280;30288;50.514;9.678;2023-12-29T07:10:43;98317.63;;;8.93;100.00
29903;BME280;30288;50.514;9.678;2023-12-29T07:12:52;98319.38;;;8.90;100.00
29903;BME280;30288;50.514;9.678;2023-12-29T07:14:57;98321.75;;;8.96;100.00
29903;BME280;30288;50.514;9.678;2023-12-29T07:17:03;98337.75;;;8.92;100.00
29903;BME280;30288;50.514;9.678;2023-12-29T07:19:08;98331.25;;;8.85;100.00
29903;BME280;30288;50.514;9.678;2023-12-29T07:21:15;98339.47;;;8.90;100.00
29903;BME280;30288;50.514;9.678;2023-12-29T07:23:21;98329.53;;;8.87;100.00
29903;BME280;30288;50.514;9.678;2023-12-29T07:25:30;98325.28;;;8.89;100.00
29903;BME280;30288;50.514;9.678;2023-12-29T07:27:35;98339.56;;;8.87;100.00
29903;BME280;30288;50.514;9.678;2023-12-29T07:29:41;98335.28;;;8.90;100.00
29903;BME280;30288;50.514;9.678;2023-12-29T07:31:46;98335.41;;;8.86;100.00
29903;BME280;30288;50.514;9.678;2023-12-29T07:33:51;98324.41;;;8.90;100.00
29903;BME280;30288;50.514;9.678;2023-12-29T07:35:56;98302.78;;;8.86;100.00
29903;BME280;30288;50.514;9.678;2023-12-29T07:38:02;98309.53;;;8.84;100.00
29903;BME280;30288;50.514;9.678;2023-12-29T07:40:10;98298.56;;;8.86;100.00
29903;BME280;30288;50.514;9.678;2023-12-29T07:42:18;98317.00;;;8.85;100.00
29903;BME280;30288;50.514;9.678;2023-12-29T07:44:21;98315.34;;;8.84;100.00
29903;BME280;30288;50.514;9.678;2023-12-29T07:46:26;98317.84;;;8.86;100.00
29903;BME280;30288;50.514;9.678;2023-12-29T07:48:31;98321.22;;;8.85;100.00
29903;BME280;30288;50.514;9.678;2023-12-29T07:50:37;98321.91;;;8.90;100.00
29903;BME280;30288;50.514;9.678;2023-12-29T07:52:42;98315.19;;;8.90;100.00
29903;BME280;30288;50.514;9.678;2023-12-29T07:54:48;98326.88;;;8.93;100.00
29903;BME280;30288;50.514;9.678;2023-12-29T07:56:53;98335.84;;;9.00;100.00
29903;BME280;30288;50.514;9.678;2023-12-29T07:59:05;98329.19;;;8.99;100.00
29903;BME280;30288;50.514;9.678;2023-12-29T08:01:10;98339.22;;;8.99;100.00
29903;BME280;30288;50.514;9.678;2023-12-29T08:03:15;98334.97;;;9.02;100.00
29903;BME280;30288;50.514;9.678;2023-12-29T08:05:21;98333.16;;;9.07;100.00
29903;BME280;30288;50.514;9.678;2023-12-29T08:07:26;98340.72;;;9.06;100.00
29903;BME280;30288;50.514;9.678;2023-12-29T08:09:32;98341.66;;;9.02;100.00
29903;BME280;30288;50.514;9.678;2023-12-29T08:11:37;98341.53;;;9.06;100.00
29903;BME280;30288;50.514;9.678;2023-12-29T08:13:48;98334.97;;;9.02;100.00
29903;BME280;30288;50.514;9.678;2023-12-29T08:15:56;98344.25;;;8.99;100.00
29903;BME280;30288;50.514;9.678;2023-12-29T08:18:01;98335.38;;;8.87;100.00
29903;BME280;30288;50.514;9.678;2023-12-29T08:20:09;98340.97;;;8.97;100.00
29903;BME280;30288;50.514;9.678;2023-12-29T08:22:15;98336.09;;;8.91;100.00
29903;BME280;30288;50.514;9.678;2023-12-29T08:24:22;98342.94;;;8.86;100.00
29903;BME280;30288;50.514;9.678;2023-12-29T08:26:27;98337.75;;;8.92;100.00
29903;BME280;30288;50.514;9.678;2023-12-29T08:28:33;98337.50;;;9.01;100.00
29903;BME280;30288;50.514;9.678;2023-12-29T08:30:38;98339.91;;;9.04;100.00
29903;BME280;30288;50.514;9.678;2023-12-29T08:32:46;98339.06;;;9.05;100.00
29903;BME280;30288;50.514;9.678;2023-12-29T08:34:52;98345.75;;;9.06;100.00
29903;BME280;30288;50.514;9.678;2023-12-29T08:36:59;98345.63;;;9.09;100.00
29903;BME280;30288;50.514;9.678;2023-12-29T08:39:04;98342.22;;;9.11;100.00
29903;BME280;30288;50.514;9.678;2023-12-29T08:41:09;98341.28;;;9.15;100.00
29903;BME280;30288;50.514;9.678;2023-12-29T08:43:14;98330.41;;;9.15;100.00
29903;BME280;30288;50.514;9.678;2023-12-29T08:45:23;98346.28;;;9.17;100.00
29903;BME280;30288;50.514;9.678;2023-12-29T08:47:29;98339.34;;;9.23;100.00
29903;BME280;30288;50.514;9.678;2023-12-29T08:49:37;98336.03;;;9.23;100.00
29903;BME280;30288;50.514;9.678;2023-12-29T08:51:40;98340.44;;;9.15;100.00
29903;BME280;30288;50.514;9.678;2023-12-29T08:53:46;98330.13;;;9.24;100.00
29903;BME280;30288;50.514;9.678;2023-12-29T08:55:51;98337.53;;;9.29;100.00
29903;BME280;30288;50.514;9.678;2023-12-29T08:57:54;98335.88;;;9.28;100.00
29903;BME280;30288;50.514;9.678;2023-12-29T09:00:00;98328.31;;;9.29;100.00
29903;BME280;30288;50.514;9.678;2023-12-29T09:02:06;98332.50;;;9.29;100.00
29903;BME280;30288;50.514;9.678;2023-12-29T09:04:11;98329.97;;;9.30;100.00
29903;BME280;30288;50.514;9.678;2023-12-29T09:06:22;98324.94;;;9.30;100.00
29903;BME280;30288;50.514;9.678;2023-12-29T09:08:28;98324.94;;;9.30;100.00
29903;BME280;30288;50.514;9.678;2023-12-29T09:10:33;98328.16;;;9.35;100.00
29903;BME280;30288;50.514;9.678;2023-12-29T09:12:39;98338.19;;;9.35;100.00
29903;BME280;30288;50.514;9.678;2023-12-29T09:14:44;98343.91;;;9.40;100.00
29903;BME280;30288;50.514;9.678;2023-12-29T09:16:47;98341.19;;;9.46;100.00
29903;BME280;30288;50.514;9.678;2023-12-29T09:18:53;98332.69;;;9.50;100.00
29903;BME280;30288;50.514;9.678;2023-12-29T09:20:58;98331.97;;;9.47;100.00
29903;BME280;30288;50.514;9.678;2023-12-29T09:23:06;98332.63;;;9.53;100.00
29903;BME280;30288;50.514;9.678;2023-12-29T09:25:11;98331.94;;;9.48;100.00
29903;BME280;30288;50.514;9.678;2023-12-29T09:27:17;98331.69;;;9.56;100.00
29903;BME280;30288;50.514;9.678;2023-12-29T09:29:22;98327.31;;;9.62;100.00
29903;BME280;30288;50.514;9.678;2023-12-29T09:31:27;98316.31;;;9.65;100.00
29903;BME280;30288;50.514;9.678;2023-12-29T09:33:32;98323.66;;;9.73;100.00
29903;BME280;30288;50.514;9.678;2023-12-29T09:35:38;98337.72;;;9.78;100.00
29903;BME280;30288;50.514;9.678;2023-12-29T09:37:41;98328.38;;;9.82;100.00
29903;BME280;30288;50.514;9.678;2023-12-29T09:39:49;98329.81;;;9.89;100.00
29903;BME280;30288;50.514;9.678;2023-12-29T09:41:58;98338.34;;;9.85;100.00
29903;BME280;30288;50.514;9.678;2023-12-29T09:44:08;98329.81;;;9.89;100.00
29903;BME280;30288;50.514;9.678;2023-12-29T09:46:17;98327.16;;;9.93;100.00
29903;BME280;30288;50.514;9.678;2023-12-29T09:48:23;98336.44;;;9.93;100.00
29903;BME280;30288;50.514;9.678;2023-12-29T09:50:33;98338.84;;;9.96;100.00
29903;BME280;30288;50.514;9.678;2023-12-29T09:52:40;98339.59;;;9.98;100.00
29903;BME280;30288;50.514;9.678;2023-12-29T09:54:49;98333.63;;;10.02;100.00
29903;BME280;30288;50.514;9.678;2023-12-29T09:56:56;98345.38;;;10.01;100.00
29903;BME280;30288;50.514;9.678;2023-12-29T09:58:59;98331.19;;;9.99;100.00
29903;BME280;30288;50.514;9.678;2023-12-29T10:01:07;98339.41;;;10.04;100.00
29903;BME280;30288;50.514;9.678;2023-12-29T10:03:12;98333.69;;;9.99;100.00
29903;BME280;30288;50.514;9.678;2023-12-29T10:05:18;98331.66;;;10.10;100.00
29903;BME280;30288;50.514;9.678;2023-12-29T10:07:24;98324.72;;;10.18;100.00
29903;BME280;30288;50.514;9.678;2023-12-29T10:09:32;98327.22;;;10.18;100.00
29903;BME280;30288;50.514;9.678;2023-12-29T10:11:42;98323.03;;;10.19;100.00
29903;BME280;30288;50.514;9.678;2023-12-29T10:13:54;98312.06;;;10.21;100.00
29903;BME280;30288;50.514;9.678;2023-12-29T10:16:08;98312.06;;;10.21;100.00
29903;BME280;30288;50.514;9.678;2023-12-29T10:18:28;98300.50;;;10.14;100.00
29903;BME280;30288;50.514;9.678;2023-12-29T10:20:44;98302.88;;;10.19;100.00
29903;BME280;30288;50.514;9.678;2023-12-29T10:22:54;98302.94;;;10.17;100.00
29903;BME280;30288;50.514;9.678;2023-12-29T10:25:06;98311.38;;;10.15;100.00
29903;BME280;30288;50.514;9.678;2023-12-29T10:27:14;98304.84;;;10.09;100.00
29903;BME280;30288;50.514;9.678;2023-12-29T10:29:19;98300.59;;;10.11;100.00
29903;BME280;30288;50.514;9.678;2023-12-29T10:31:26;98324.00;;;10.13;100.00
29903;BME280;30288;50.514;9.678;2023-12-29T10:33:31;98305.69;;;10.09;100.00
29903;BME280;30288;50.514;9.678;2023-12-29T10:35:36;98294.78;;;10.09;100.00
29903;BME280;30288;50.514;9.678;2023-12-29T10:37:42;98300.69;;;10.08;100.00
29903;BME280;30288;50.514;9.678;2023-12-29T10:39:55;98317.44;;;10.09;100.00
29903;BME280;30288;50.514;9.678;2023-12-29T10:42:06;98311.72;;;10.04;100.00
29903;BME280;30288;50.514;9.678;2023-12-29T10:44:16;98305.16;;;10.00;100.00
29903;BME280;30288;50.514;9.678;2023-12-29T10:46:25;98309.28;;;10.02;100.00
29903;BME280;30288;50.514;9.678;2023-12-29T10:48:30;98309.31;;;10.01;100.00
29903;BME280;30288;50.514;9.678;2023-12-29T10:50:43;98305.00;;;10.04;100.00
29903;BME280;30288;50.514;9.678;2023-12-29T10:52:49;98308.38;;;10.03;100.00
29903;BME280;30288;50.514;9.678;2023-12-29T10:55:05;98319.28;;;10.04;100.00
29903;BME280;30288;50.514;9.678;2023-12-29T10:57:12;98315.91;;;10.05;100.00
29903;BME280;30288;50.514;9.678;2023-12-29T10:59:19;98312.50;;;10.06;100.00
29903;BME280;30288;50.514;9.678;2023-12-29T11:01:24;98311.72;;;10.04;100.00
29903;BME280;30288;50.514;9.678;2023-12-29T11:03:29;98311.56;;;10.08;100.00
29903;BME280;30288;50.514;9.678;2023-12-29T11:05:34;98317.44;;;10.09;100.00
29903;BME280;30288;50.514;9.678;2023-12-29T11:07:41;98306.63;;;10.07;100.00
29903;BME280;30288;50.514;9.678;2023-12-29T11:09:47;98320.81;;;10.08;100.00